createdAt,value
2022-08-07T10:52:13.391Z,32.85
2022-08-07T10:53:08.884Z,32.32
2022-08-07T10:54:06.303Z,32.02
2022-08-07T10:55:20.929Z,32.01
2022-08-07T10:56:06.236Z,32.01
2022-08-07T10:57:06.239Z,32.34
2022-08-07T10:58:06.257Z,32.44
2022-08-07T10:59:06.444Z,32.71
2022-08-07T11:00:06.356Z,33.03
2022-08-07T11:01:11.526Z,33.40
2022-08-07T11:02:12.382Z,33.46
2022-08-07T11:03:11.197Z,33.08
2022-08-07T11:04:23.067Z,32.78
2022-08-07T11:05:10.518Z,33.12
2022-08-07T11:06:06.391Z,33.31
2022-08-07T11:07:24.470Z,33.51
2022-08-07T11:08:06.662Z,32.99
2022-08-07T11:09:11.192Z,32.71
2022-08-07T11:10:10.332Z,32.89
2022-08-07T11:11:06.426Z,33.16
2022-08-07T11:12:06.393Z,33.32
2022-08-07T11:13:06.413Z,33.50
2022-08-07T11:14:45.668Z,33.79
2022-08-07T11:15:14.686Z,33.97
2022-08-07T11:16:07.217Z,33.69
2022-08-07T11:17:07.204Z,33.35
2022-08-07T11:18:06.404Z,33.53
2022-08-07T11:19:06.812Z,33.71
2022-08-07T11:20:06.433Z,33.94
2022-08-07T11:21:06.427Z,34.06
2022-08-07T11:22:06.483Z,34.46
2022-08-07T11:23:07.296Z,34.51
2022-08-07T11:24:08.449Z,34.50
2022-08-07T11:25:06.803Z,34.39
2022-08-07T11:26:06.658Z,34.33
2022-08-07T11:27:06.516Z,34.24
2022-08-07T11:28:06.660Z,34.32
2022-08-07T11:29:13.064Z,33.66
2022-08-07T11:30:18.770Z,33.29
2022-08-07T11:31:08.743Z,32.73
2022-08-07T11:32:06.493Z,32.56
2022-08-07T11:33:08.002Z,32.48
2022-08-07T11:34:06.513Z,32.35
2022-08-07T11:35:06.494Z,32.55
2022-08-07T11:36:10.394Z,32.94
2022-08-07T11:37:06.834Z,33.27
2022-08-07T11:38:10.097Z,33.69
2022-08-07T11:39:06.928Z,33.91
2022-08-07T11:40:06.839Z,33.74
2022-08-07T11:41:06.481Z,33.99
2022-08-07T11:42:06.478Z,34.28
2022-08-07T11:43:06.501Z,33.71
2022-08-07T11:44:12.237Z,33.53
2022-08-07T11:45:06.713Z,33.52
2022-08-07T11:46:06.493Z,33.35
2022-08-07T11:47:06.482Z,33.18
2022-08-07T11:48:18.298Z,33.05
2022-08-07T11:49:50.195Z,33.09
2022-08-07T11:50:30.723Z,33.25
2022-08-07T11:51:09.707Z,33.45
2022-08-07T11:52:06.566Z,33.69
2022-08-07T11:53:06.564Z,33.67
2022-08-07T11:54:10.242Z,33.73
2022-08-07T11:55:09.036Z,33.74
2022-08-07T11:56:24.956Z,33.81
2022-08-07T11:57:06.600Z,33.81
2022-08-07T11:58:16.200Z,33.66
2022-08-07T11:59:22.216Z,33.43
2022-08-07T12:00:10.576Z,32.99
2022-08-07T12:01:06.796Z,32.66
2022-08-07T12:02:17.640Z,32.53
2022-08-07T12:03:06.619Z,32.34
2022-08-07T12:04:06.522Z,32.23
2022-08-07T12:05:09.130Z,32.17
2022-08-07T12:06:36.494Z,31.91
2022-08-07T12:07:09.042Z,31.27
2022-08-07T12:08:06.552Z,31.20
2022-08-07T12:09:07.497Z,31.17
2022-08-07T12:10:07.062Z,31.15
2022-08-07T12:11:20.334Z,31.15
2022-08-07T12:12:08.879Z,30.97
2022-08-07T12:13:11.557Z,31.09
2022-08-07T12:14:06.575Z,30.99
2022-08-07T12:15:08.165Z,31.05
2022-08-07T12:16:09.167Z,31.13
2022-08-07T12:17:06.569Z,30.98
2022-08-07T12:18:08.138Z,30.97
2022-08-07T12:19:06.718Z,30.80
2022-08-07T12:20:10.510Z,30.73
2022-08-07T12:21:06.581Z,30.68
2022-08-07T12:22:39.445Z,30.72
2022-08-07T12:23:09.202Z,30.79
2022-08-07T12:24:36.901Z,30.88
2022-08-07T12:25:07.688Z,30.84
2022-08-07T12:26:29.013Z,30.73
2022-08-07T12:27:15.706Z,30.63
2022-08-07T12:28:09.860Z,30.66
2022-08-07T12:29:06.593Z,30.66
2022-08-07T12:30:06.684Z,30.56
2022-08-07T12:31:06.600Z,30.36
2022-08-07T12:32:12.133Z,30.38
2022-08-07T12:33:18.785Z,30.37
2022-08-07T12:34:11.241Z,30.48
2022-08-07T12:35:08.298Z,30.72
2022-08-07T12:36:06.696Z,30.83
2022-08-07T12:37:08.542Z,30.76
2022-08-07T12:38:09.739Z,30.67
2022-08-07T12:39:41.978Z,30.93
2022-08-07T12:40:19.138Z,30.90
2022-08-07T12:41:09.921Z,30.89
2022-08-07T12:42:07.115Z,30.79
2022-08-07T12:43:09.206Z,30.71
2022-08-07T12:44:10.423Z,30.64
2022-08-07T12:45:06.747Z,30.63
2022-08-07T12:46:06.656Z,30.58
2022-08-07T12:47:06.751Z,30.56
2022-08-07T12:48:13.059Z,30.52
2022-08-07T12:49:10.026Z,30.45
2022-08-07T12:50:38.697Z,30.41
2022-08-07T12:51:13.236Z,30.37
2022-08-07T12:52:13.940Z,30.30
2022-08-07T12:53:18.203Z,30.37
2022-08-07T12:54:37.458Z,30.46
2022-08-07T12:55:09.514Z,30.56
2022-08-07T12:56:09.331Z,30.67
2022-08-07T12:57:09.455Z,30.69
2022-08-07T12:58:06.817Z,30.53
2022-08-07T12:59:08.282Z,30.64
2022-08-07T13:00:06.862Z,30.59
2022-08-07T13:01:07.808Z,30.64
2022-08-07T13:02:09.985Z,30.70
2022-08-07T13:03:07.232Z,30.68
2022-08-07T13:04:09.751Z,30.74
2022-08-07T13:06:01.994Z,30.74
2022-08-07T13:06:26.956Z,30.84
2022-08-07T13:07:06.817Z,30.92
2022-08-07T13:08:12.931Z,31.06
2022-08-07T13:10:10.005Z,31.03
2022-08-07T13:10:21.396Z,31.28
2022-08-07T13:11:06.844Z,31.24
2022-08-07T13:12:10.067Z,31.39
2022-08-07T13:13:06.842Z,31.51
2022-08-07T13:14:06.869Z,31.68
2022-08-07T13:15:06.849Z,31.97
2022-08-07T13:16:06.891Z,32.14
2022-08-07T13:17:06.904Z,32.30
2022-08-07T13:18:06.848Z,32.08
2022-08-07T13:19:18.454Z,32.12
2022-08-07T13:20:06.917Z,32.30
2022-08-07T13:21:07.205Z,32.34
2022-08-07T13:22:19.466Z,32.63
2022-08-07T13:23:09.923Z,32.76
2022-08-07T13:24:06.874Z,32.91
2022-08-07T13:25:07.286Z,33.27
2022-08-07T13:26:06.881Z,33.65
2022-08-07T13:27:06.944Z,33.40
2022-08-07T13:28:13.637Z,33.38
2022-08-07T13:29:06.897Z,33.32
2022-08-07T13:30:06.899Z,33.38
2022-08-07T13:31:12.944Z,33.40
2022-08-07T13:32:31.889Z,33.81
2022-08-07T13:33:06.893Z,34.29
2022-08-07T13:34:33.648Z,33.86
2022-08-07T13:35:08.625Z,33.99
2022-08-07T13:36:06.956Z,34.36
2022-08-07T13:37:10.752Z,33.84
2022-08-07T13:38:06.902Z,34.31
2022-08-07T13:39:12.676Z,34.42
2022-08-07T13:40:33.276Z,34.70
2022-08-07T13:41:06.931Z,34.62
2022-08-07T13:42:06.904Z,34.75
2022-08-07T13:43:11.733Z,35.21
2022-08-07T13:44:10.382Z,35.57
2022-08-07T13:46:06.783Z,35.76
2022-08-07T13:46:21.107Z,35.63
2022-08-07T13:47:09.414Z,35.57
2022-08-07T13:48:08.229Z,35.39
2022-08-07T13:49:08.889Z,35.39
2022-08-07T13:50:35.437Z,34.40
2022-08-07T13:51:28.112Z,34.23
2022-08-07T13:52:31.535Z,34.11
2022-08-07T13:53:06.942Z,34.22
2022-08-07T13:54:07.012Z,34.21
2022-08-07T13:55:06.983Z,34.24
2022-08-07T13:56:06.971Z,34.09
2022-08-07T13:57:06.969Z,34.19
2022-08-07T13:58:06.954Z,34.11
2022-08-07T13:59:10.390Z,33.98
2022-08-07T14:00:07.029Z,33.65
2022-08-07T14:01:08.920Z,33.05
2022-08-07T14:02:06.967Z,32.65
2022-08-07T14:03:06.991Z,32.40
2022-08-07T14:04:08.506Z,32.24
2022-08-07T14:05:07.120Z,32.23
2022-08-07T14:06:07.082Z,32.24
2022-08-07T14:07:09.302Z,32.06
2022-08-07T14:08:07.161Z,31.82
2022-08-07T14:09:07.152Z,31.71
2022-08-07T14:10:20.476Z,31.47
2022-08-07T14:11:17.418Z,31.27
2022-08-07T14:12:07.404Z,31.05
2022-08-07T14:13:07.112Z,30.75
2022-08-07T14:14:07.123Z,30.68
2022-08-07T14:15:07.131Z,30.45
2022-08-07T14:16:15.442Z,30.59
2022-08-07T14:17:51.664Z,30.44
2022-08-07T14:18:24.305Z,30.40
2022-08-07T14:19:07.146Z,30.33
2022-08-07T14:20:42.482Z,30.43
2022-08-07T14:21:11.767Z,30.27
2022-08-07T14:22:11.616Z,30.14
2022-08-07T14:23:07.195Z,29.97
2022-08-07T14:24:07.133Z,29.74
2022-08-07T14:25:07.312Z,29.63
2022-08-07T14:26:07.211Z,29.51
2022-08-07T14:28:10.756Z,29.57
2022-08-07T14:28:11.358Z,29.58
2022-08-07T14:30:02.782Z,29.60
2022-08-07T14:30:11.802Z,29.60
2022-08-07T14:31:07.161Z,29.55
2022-08-07T14:32:07.201Z,29.63
2022-08-07T14:33:07.195Z,29.61
2022-08-07T14:34:07.472Z,29.59
2022-08-07T14:35:07.263Z,29.58
2022-08-07T14:36:07.187Z,29.50
2022-08-07T14:37:07.395Z,29.55
2022-08-07T14:39:07.282Z,29.48
2022-08-07T14:40:25.635Z,29.43
2022-08-07T14:41:12.486Z,29.47
2022-08-07T14:42:19.922Z,29.34
2022-08-07T14:43:57.357Z,29.34
2022-08-07T14:44:11.845Z,29.23
2022-08-07T14:45:21.612Z,29.12
2022-08-07T14:46:07.208Z,29.16
2022-08-07T14:48:07.232Z,29.12
2022-08-07T14:49:55.658Z,29.10
2022-08-07T14:51:07.210Z,29.16
2022-08-07T14:52:10.608Z,29.15
2022-08-07T14:54:31.116Z,29.12
2022-08-07T14:55:07.346Z,29.05
2022-08-07T14:56:07.277Z,28.73
2022-08-07T14:57:07.355Z,28.69
2022-08-07T14:58:07.268Z,28.65
2022-08-07T14:59:14.030Z,28.56
2022-08-07T15:00:07.453Z,28.43
2022-08-07T15:01:21.441Z,28.52
2022-08-07T15:02:07.290Z,28.31
2022-08-07T15:03:16.709Z,28.31
2022-08-07T15:04:07.279Z,28.14
2022-08-07T15:05:20.234Z,28.02
2022-08-07T15:06:07.279Z,27.99
2022-08-07T15:07:17.612Z,27.99
2022-08-07T15:08:07.278Z,28.02
2022-08-07T15:09:57.559Z,28.00
2022-08-07T15:11:07.282Z,28.04
2022-08-07T15:12:07.353Z,27.96
2022-08-07T15:13:12.343Z,27.91
2022-08-07T15:14:10.066Z,27.88
2022-08-07T15:15:07.979Z,27.88
2022-08-07T15:16:11.076Z,27.89
2022-08-07T15:17:11.472Z,27.84
2022-08-07T15:18:14.399Z,27.92
2022-08-07T15:19:07.310Z,28.01
2022-08-07T15:21:08.040Z,28.02
2022-08-07T15:22:23.096Z,28.07
2022-08-07T15:23:20.526Z,28.03
2022-08-07T15:25:14.122Z,28.05
2022-08-07T15:25:16.754Z,27.97
2022-08-07T15:26:07.330Z,27.82
2022-08-07T15:27:09.897Z,27.82
2022-08-07T15:31:07.458Z,27.82
2022-08-07T15:32:07.465Z,27.87
2022-08-07T15:34:12.420Z,27.57
2022-08-07T15:35:07.528Z,27.71
2022-08-07T15:36:07.476Z,27.65
2022-08-07T15:37:10.185Z,27.58
2022-08-07T15:38:30.353Z,27.56
2022-08-07T15:39:10.518Z,27.55
2022-08-07T15:40:11.468Z,27.41
2022-08-07T15:41:23.748Z,27.29
2022-08-07T15:42:44.077Z,27.27
2022-08-07T15:43:07.503Z,27.21
2022-08-07T15:44:07.485Z,27.15
2022-08-07T15:45:09.417Z,27.22
2022-08-07T15:48:07.553Z,27.14
2022-08-07T15:49:14.536Z,27.08
2022-08-07T15:50:07.614Z,27.14
2022-08-07T15:52:09.538Z,27.20
2022-08-07T15:53:07.696Z,27.15
2022-08-07T15:54:11.943Z,27.14
2022-08-07T15:55:08.656Z,27.17
2022-08-07T15:56:07.586Z,27.21
2022-08-07T15:57:07.549Z,27.20
2022-08-07T15:58:10.520Z,27.13
2022-08-07T15:59:07.541Z,27.06
2022-08-07T16:00:07.600Z,27.07
2022-08-07T16:01:07.629Z,27.07
2022-08-07T16:02:07.611Z,27.11
2022-08-07T16:03:20.462Z,27.11
2022-08-07T16:04:14.811Z,27.20
2022-08-07T16:05:15.071Z,27.19
2022-08-07T16:06:07.538Z,27.17
2022-08-07T16:08:28.358Z,27.13
2022-08-07T16:08:33.706Z,27.09
2022-08-07T16:09:07.641Z,27.11
2022-08-07T16:10:11.657Z,27.12
2022-08-07T16:11:17.381Z,27.08
2022-08-07T16:12:07.641Z,27.01
2022-08-07T16:13:17.767Z,27.02
2022-08-07T16:14:07.540Z,26.98
2022-08-07T16:15:07.572Z,26.98
2022-08-07T16:16:43.165Z,26.90
2022-08-07T16:17:15.117Z,26.91
2022-08-07T16:18:07.585Z,26.83
2022-08-07T16:19:09.687Z,26.83
2022-08-07T16:20:07.738Z,26.81
2022-08-07T16:21:57.076Z,26.76
2022-08-07T16:22:19.252Z,26.76
2022-08-07T16:23:09.879Z,26.74
2022-08-07T16:24:09.192Z,26.73
2022-08-07T16:25:07.837Z,26.77
2022-08-07T16:26:08.077Z,26.76
2022-08-07T16:27:18.179Z,26.66
2022-08-07T16:28:11.493Z,26.66
2022-08-07T16:30:05.547Z,26.62
2022-08-07T16:30:29.681Z,26.70
2022-08-07T16:31:10.088Z,26.66
2022-08-07T16:32:07.709Z,26.67
2022-08-07T16:34:05.990Z,26.62
2022-08-07T16:34:12.450Z,26.54
2022-08-07T16:35:52.032Z,26.54
2022-08-07T16:36:07.723Z,26.58
2022-08-07T16:38:04.400Z,26.58
2022-08-07T16:38:09.567Z,26.39
2022-08-07T16:39:10.070Z,26.18
2022-08-07T16:40:11.623Z,26.10
2022-08-07T16:41:07.770Z,26.19
2022-08-07T16:42:08.748Z,26.15
2022-08-07T16:43:07.770Z,26.06
2022-08-07T16:44:53.759Z,25.96
2022-08-07T16:45:14.883Z,26.06
2022-08-07T16:46:47.379Z,26.08
2022-08-07T16:47:28.937Z,26.12
2022-08-07T16:48:07.815Z,26.05
2022-08-07T16:50:20.856Z,26.08
2022-08-07T16:50:28.095Z,26.09
2022-08-07T16:51:54.172Z,26.07
2022-08-07T16:52:51.850Z,26.10
2022-08-07T16:53:55.578Z,26.05
2022-08-07T16:54:09.570Z,26.05
2022-08-07T16:55:08.351Z,26.05
2022-08-07T16:56:08.947Z,26.03
2022-08-07T16:57:12.974Z,26.08
2022-08-07T16:58:08.001Z,26.06
2022-08-07T16:59:11.190Z,26.03
2022-08-07T17:00:09.995Z,26.08
